Time;durP1;ratioP1;P1;durP2;ratioP2;P2;SDS_P1;SDS_P2;PMS_P1;PMS_P2;Temp;Humidity;BMP_temperature;BMP_pressure;BME280_temperature;BME280_humidity;BME280_pressure;Samples;Min_cycle;Max_cycle;Signal;HPM_P1;HPM_P2
2021/01/29 00:01:28;;;;;;;4.10;2.83;;;-2.30;82.90;;;;;;4967694;28;20186;-70
2021/01/29 00:03:54;;;;;;;5.33;4.20;;;-2.30;83.20;;;;;;4957344;28;20205;-70
2021/01/29 00:06:20;;;;;;;6.67;4.07;;;-2.30;83.20;;;;;;4976529;28;20584;-70
2021/01/29 00:08:45;;;;;;;4.40;4.00;;;-2.30;83.00;;;;;;4967554;28;20188;-70
2021/01/29 00:11:11;;;;;;;4.03;3.43;;;-2.30;83.20;;;;;;4976212;28;20270;-70
2021/01/29 00:13:37;;;;;;;4.40;3.50;;;-2.30;83.00;;;;;;4961099;28;20230;-70
2021/01/29 00:16:03;;;;;;;4.80;4.10;;;-2.30;83.00;;;;;;4967619;28;20187;-70
2021/01/29 00:18:29;;;;;;;2.67;2.50;;;-2.30;83.00;;;;;;4949373;28;20201;-70
2021/01/29 00:20:55;;;;;;;15.67;3.70;;;-2.30;82.80;;;;;;4967678;28;20193;-70
2021/01/29 00:23:21;;;;;;;4.00;3.53;;;-2.30;82.90;;;;;;4950433;28;20948;-70
2021/01/29 00:25:50;;;;;;;6.60;3.83;;;-2.30;82.70;;;;;;4967110;28;20186;-70
2021/01/29 00:28:17;;;;;;;7.63;3.63;;;-2.30;82.60;;;;;;4933443;29;20991;-70
2021/01/29 00:30:44;;;;;;;5.13;3.80;;;-2.30;82.70;;;;;;4968806;28;20596;-70
2021/01/29 00:33:12;;;;;;;5.90;2.87;;;-2.30;82.70;;;;;;4980542;28;21030;-70
2021/01/29 00:35:38;;;;;;;2.90;2.67;;;-2.30;82.60;;;;;;4968821;28;20586;-71
2021/01/29 00:38:06;;;;;;;3.43;3.13;;;-2.30;82.50;;;;;;4948887;28;20558;-70
2021/01/29 00:40:32;;;;;;;4.27;2.47;;;-2.30;83.00;;;;;;4964722;28;20190;-70
2021/01/29 00:42:58;;;;;;;2.90;2.57;;;-2.30;83.20;;;;;;4976627;28;20209;-70
2021/01/29 00:45:26;;;;;;;9.70;4.27;;;-2.30;83.00;;;;;;4967900;28;20185;-70
2021/01/29 00:47:52;;;;;;;4.03;3.70;;;-2.30;83.00;;;;;;4949013;28;20749;-70
2021/01/29 00:50:18;;;;;;;8.87;4.07;;;-2.30;82.80;;;;;;4970231;28;20182;-70
2021/01/29 00:52:44;;;;;;;4.67;3.57;;;-2.20;82.60;;;;;;4966145;28;20266;-70
2021/01/29 00:55:10;;;;;;;6.37;3.10;;;-2.20;82.60;;;;;;4965442;28;20198;-70
2021/01/29 00:57:36;;;;;;;3.87;3.57;;;-2.20;82.60;;;;;;4966335;28;20190;-70
2021/01/29 01:00:05;;;;;;;4.33;3.93;;;-2.10;82.80;;;;;;4965250;28;20197;-70
2021/01/29 01:02:31;;;;;;;4.73;3.63;;;-2.10;82.60;;;;;;4952508;28;20239;-70
2021/01/29 01:04:56;;;;;;;4.10;3.00;;;-2.00;82.90;;;;;;4978314;28;20185;-70
2021/01/29 01:07:22;;;;;;;4.37;3.37;;;-2.00;82.60;;;;;;4976363;28;20730;-72
2021/01/29 01:09:48;;;;;;;3.97;3.63;;;-2.00;82.50;;;;;;4966614;28;20211;-70
2021/01/29 01:12:14;;;;;;;6.07;3.07;;;-2.00;82.10;;;;;;4970939;28;20265;-70
2021/01/29 01:14:40;;;;;;;7.67;4.80;;;-2.00;82.10;;;;;;4969858;28;20288;-70
2021/01/29 01:17:06;;;;;;;5.10;3.83;;;-2.00;82.30;;;;;;4982254;28;20577;-70
2021/01/29 01:19:35;;;;;;;3.47;2.80;;;-2.00;82.50;;;;;;4966255;28;20189;-70
2021/01/29 01:22:02;;;;;;;3.90;3.53;;;-1.90;82.40;;;;;;4966441;28;20202;-70
2021/01/29 01:24:28;;;;;;;7.70;3.17;;;-1.80;82.50;;;;;;4965179;28;21549;-70
2021/01/29 01:26:54;;;;;;;4.03;3.63;;;-1.80;82.20;;;;;;4961961;28;20195;-70
2021/01/29 01:29:19;;;;;;;4.83;3.27;;;-1.80;81.60;;;;;;4979321;28;20194;-70
2021/01/29 01:31:45;;;;;;;3.90;3.60;;;-1.90;81.70;;;;;;4966777;28;20289;-70
2021/01/29 01:34:11;;;;;;;5.40;3.47;;;-1.90;82.10;;;;;;4971955;28;20205;-70
2021/01/29 01:36:36;;;;;;;4.27;2.87;;;-1.90;82.10;;;;;;4980736;28;20194;-71
2021/01/29 01:39:02;;;;;;;7.53;3.50;;;-1.80;82.80;;;;;;4968861;28;20198;-71
2021/01/29 01:41:28;;;;;;;4.23;3.07;;;-1.80;82.90;;;;;;4966101;28;20225;-71
2021/01/29 01:43:54;;;;;;;6.00;2.90;;;-1.70;83.10;;;;;;4965480;28;20221;-70
2021/01/29 01:46:20;;;;;;;4.20;3.40;;;-1.70;83.10;;;;;;4948920;28;20194;-69
2021/01/29 01:48:55;;;;;;;3.33;3.03;;;-1.70;82.70;;;;;;4970666;28;20667;-69
2021/01/29 01:51:34;;;;;;;5.77;3.00;;;-1.60;82.80;;;;;;4969186;28;20209;-71
2021/01/29 01:54:01;;;;;;;4.83;3.27;;;-1.50;82.80;;;;;;4949093;28;20182;-70
2021/01/29 01:56:46;;;;;;;4.70;3.10;;;-1.50;82.40;;;;;;4967291;28;20178;-69
2021/01/29 01:59:17;;;;;;;4.23;3.17;;;-1.40;82.50;;;;;;4964684;28;20722;-69
2021/01/29 02:01:44;;;;;;;4.73;3.37;;;-1.40;82.60;;;;;;4935722;28;20655;-69
2021/01/29 02:04:13;;;;;;;3.23;2.93;;;-1.40;82.50;;;;;;4947819;28;20212;-69
2021/01/29 02:06:57;;;;;;;6.23;3.17;;;-1.40;82.40;;;;;;4969758;28;20566;-69
2021/01/29 02:09:24;;;;;;;5.10;2.97;;;-1.40;82.10;;;;;;4983267;28;20189;-69
2021/01/29 02:11:52;;;;;;;14.30;3.53;;;-1.40;81.50;;;;;;4959181;28;20565;-69
2021/01/29 02:14:18;;;;;;;2.83;2.63;;;-1.40;81.90;;;;;;4949468;28;20187;-69
2021/01/29 02:16:54;;;;;;;5.07;3.80;;;-1.40;81.60;;;;;;4965156;28;20659;-69
2021/01/29 02:20:01;;;;;;;4.33;3.50;;;-1.30;82.00;;;;;;4967002;28;20182;-69
2021/01/29 02:22:45;;;;;;;5.10;3.13;;;-1.30;82.20;;;;;;4964669;28;20574;-70
2021/01/29 02:25:13;;;;;;;3.40;3.10;;;-1.30;82.00;;;;;;4968927;28;20622;-71
2021/01/29 02:27:57;;;;;;;4.20;2.67;;;-1.20;82.10;;;;;;4976235;28;20638;-71
2021/01/29 02:30:40;;;;;;;3.70;3.10;;;-1.20;81.90;;;;;;4968862;28;20191;-71
2021/01/29 02:33:34;;;;;;;5.27;3.13;;;-1.20;81.10;;;;;;4959562;28;20646;-71
2021/01/29 02:36:09;;;;;;;3.80;3.03;;;-1.20;81.20;;;;;;4963353;28;20943;-70
2021/01/29 02:38:59;;;;;;;8.13;3.10;;;-1.20;81.20;;;;;;4946191;29;20562;-70
2021/01/29 02:41:53;;;;;;;7.93;3.00;;;-1.20;81.40;;;;;;4947122;28;20190;-70
2021/01/29 02:44:47;;;;;;;5.20;3.73;;;-1.20;81.60;;;;;;4970538;28;20206;-70
2021/01/29 02:47:23;;;;;;;4.13;2.97;;;-1.20;81.30;;;;;;4969132;28;20240;-70
2021/01/29 02:50:09;;;;;;;3.63;3.33;;;-1.20;81.50;;;;;;4966324;28;20198;-71
2021/01/29 02:52:56;;;;;;;5.27;3.93;;;-1.20;82.00;;;;;;4971724;28;20213;-70
2021/01/29 02:55:38;;;;;;;5.47;3.67;;;-1.10;82.20;;;;;;4965984;28;20190;-70
2021/01/29 02:58:14;;;;;;;7.10;4.47;;;-1.10;82.00;;;;;;4977655;28;20185;-70
2021/01/29 03:00:53;;;;;;;3.47;2.97;;;-1.10;82.20;;;;;;4956219;28;20705;-70
2021/01/29 03:03:35;;;;;;;4.33;2.87;;;-1.10;82.30;;;;;;4973522;28;20194;-70
2021/01/29 03:06:03;;;;;;;4.00;3.60;;;-1.00;82.20;;;;;;4969565;28;20166;-71
2021/01/29 03:08:38;;;;;;;9.20;4.30;;;-1.10;81.60;;;;;;4970227;28;20917;-69
2021/01/29 03:11:19;;;;;;;8.77;4.37;;;-1.10;81.90;;;;;;4968157;28;20236;-70
2021/01/29 03:13:52;;;;;;;5.27;4.33;;;-1.10;81.90;;;;;;4969113;28;20995;-71
2021/01/29 03:16:29;;;;;;;5.57;3.73;;;-1.10;81.80;;;;;;4959817;28;20189;-71
2021/01/29 03:18:59;;;;;;;6.60;3.70;;;-1.00;81.70;;;;;;4956132;28;20298;-70
2021/01/29 03:21:33;;;;;;;6.07;4.53;;;-1.00;82.00;;;;;;4950242;28;20176;-71
2021/01/29 03:24:05;;;;;;;7.17;4.47;;;-1.10;81.70;;;;;;4983597;28;21145;-69
2021/01/29 03:26:55;;;;;;;7.53;4.33;;;-1.10;81.50;;;;;;4971106;28;20733;-69
2021/01/29 03:29:24;;;;;;;8.30;3.80;;;-1.20;81.90;;;;;;4968639;28;20198;-69
2021/01/29 03:31:52;;;;;;;4.97;4.53;;;-1.20;81.90;;;;;;4969136;28;20214;-69
2021/01/29 03:34:26;;;;;;;5.60;4.20;;;-1.20;81.50;;;;;;4967764;28;20866;-69
2021/01/29 03:37:24;;;;;;;7.77;4.50;;;-1.20;81.70;;;;;;4983189;28;20250;-69
2021/01/29 03:39:50;;;;;;;7.97;3.17;;;-1.20;81.80;;;;;;4975595;28;20295;-69
2021/01/29 03:42:45;;;;;;;7.67;4.50;;;-1.30;82.00;;;;;;4953738;28;20269;-71
2021/01/29 03:45:20;;;;;;;4.97;4.40;;;-1.30;82.20;;;;;;4949467;29;20175;-70
2021/01/29 03:48:12;;;;;;;5.90;4.23;;;-1.40;82.50;;;;;;4965717;28;20729;-70
2021/01/29 03:50:50;;;;;;;4.37;3.43;;;-1.30;83.00;;;;;;4968486;28;20625;-70
2021/01/29 03:53:27;;;;;;;8.13;4.90;;;-1.30;83.00;;;;;;4966046;28;20185;-70
2021/01/29 03:56:13;;;;;;;8.83;4.47;;;-1.20;83.40;;;;;;4967965;28;20194;-70
2021/01/29 03:58:48;;;;;;;4.20;3.53;;;-1.20;83.60;;;;;;4949676;28;20616;-70
2021/01/29 04:01:38;;;;;;;5.07;4.43;;;-1.20;83.60;;;;;;4978366;28;21075;-70
2021/01/29 04:04:17;;;;;;;4.00;3.50;;;-1.20;83.80;;;;;;4948925;29;20226;-70
2021/01/29 04:06:57;;;;;;;5.60;3.87;;;-1.20;83.90;;;;;;4971373;28;20189;-70
2021/01/29 04:09:46;;;;;;;5.03;3.77;;;-1.20;84.20;;;;;;4959702;28;20204;-70
2021/01/29 04:12:17;;;;;;;4.20;3.43;;;-1.20;84.00;;;;;;4918824;29;20595;-69
2021/01/29 04:15:21;;;;;;;5.70;3.67;;;-1.10;84.30;;;;;;4917638;29;20200;-70
2021/01/29 04:17:59;;;;;;;3.13;2.93;;;-1.10;84.60;;;;;;4829490;29;20206;-69
2021/01/29 04:20:33;;;;;;;4.70;2.87;;;-1.20;84.60;;;;;;4851196;29;20206;-70
2021/01/29 04:23:05;;;;;;;3.40;3.20;;;-1.10;84.70;;;;;;4852389;29;20225;-70
2021/01/29 04:25:41;;;;;;;6.20;3.00;;;-1.10;84.90;;;;;;4851932;29;20274;-70
2021/01/29 04:28:13;;;;;;;4.00;3.50;;;-1.10;84.80;;;;;;4851453;29;20254;-70
2021/01/29 04:30:44;;;;;;;4.57;3.10;;;-1.00;84.90;;;;;;4847395;29;20210;-70
2021/01/29 04:33:20;;;;;;;2.73;2.50;;;-1.00;84.90;;;;;;4838174;29;20195;-70
2021/01/29 04:35:47;;;;;;;2.97;2.77;;;-1.00;84.90;;;;;;4851193;29;20224;-70
2021/01/29 04:38:22;;;;;;;4.60;2.40;;;-0.90;84.90;;;;;;4851340;29;20187;-70
2021/01/29 04:40:53;;;;;;;5.10;3.13;;;-0.90;84.80;;;;;;4851281;29;20198;-69
2021/01/29 04:43:51;;;;;;;8.40;3.13;;;-0.90;84.80;;;;;;4851757;29;20222;-70
2021/01/29 04:46:38;;;;;;;2.57;2.40;;;-0.90;85.20;;;;;;4778778;30;20223;-69
2021/01/29 04:49:31;;;;;;;2.53;2.00;;;-0.80;85.30;;;;;;4777797;29;20191;-69
2021/01/29 04:52:33;;;;;;;4.67;3.70;;;-0.80;85.40;;;;;;4816369;29;20240;-70
2021/01/29 04:55:18;;;;;;;2.50;2.33;;;-0.80;85.30;;;;;;4882913;29;20189;-70
2021/01/29 04:58:09;;;;;;;1.90;1.80;;;-0.80;85.10;;;;;;4869823;29;20198;-70
2021/01/29 05:00:47;;;;;;;2.37;2.27;;;-0.80;85.00;;;;;;4795940;29;20222;-70
2021/01/29 05:03:35;;;;;;;2.17;1.97;;;-0.80;85.10;;;;;;4781143;29;20228;-70
2021/01/29 05:06:19;;;;;;;2.83;2.60;;;-0.80;85.40;;;;;;4797536;29;20216;-70
2021/01/29 05:08:51;;;;;;;5.10;2.03;;;-0.80;85.40;;;;;;4797872;29;20242;-70
2021/01/29 05:11:43;;;;;;;2.93;2.63;;;-0.80;85.60;;;;;;4796951;29;20252;-70
2021/01/29 05:14:50;;;;;;;3.70;2.67;;;-0.90;85.60;;;;;;4796498;29;20587;-70
2021/01/29 05:17:35;;;;;;;3.17;2.87;;;-0.90;85.70;;;;;;4765378;30;20283;-69
2021/01/29 05:20:32;;;;;;;5.77;2.73;;;-0.90;85.70;;;;;;4763980;30;20530;-70
2021/01/29 05:23:14;;;;;;;2.43;2.33;;;-0.90;85.70;;;;;;4772677;29;20257;-71
2021/01/29 05:25:54;;;;;;;3.57;2.73;;;-1.00;86.00;;;;;;4841351;29;20263;-70
2021/01/29 05:28:58;;;;;;;4.50;3.10;;;-1.00;86.00;;;;;;4837688;29;20197;-70
2021/01/29 05:32:01;;;;;;;3.77;2.90;;;-1.00;86.00;;;;;;4835510;29;20290;-70
2021/01/29 05:34:42;;;;;;;5.33;3.20;;;-1.00;86.10;;;;;;4834860;29;20684;-70
2021/01/29 05:37:43;;;;;;;3.20;2.90;;;-1.00;86.00;;;;;;4861296;29;20203;-70
2021/01/29 05:40:46;;;;;;;4.73;3.10;;;-1.00;85.90;;;;;;4914190;29;20204;-70
2021/01/29 05:43:33;;;;;;;2.40;2.27;;;-1.00;85.90;;;;;;4901717;29;20220;-70
2021/01/29 05:46:08;;;;;;;3.27;2.97;;;-1.00;86.40;;;;;;4906786;29;20180;-70
2021/01/29 05:49:01;;;;;;;3.90;3.10;;;-1.00;86.10;;;;;;4912996;29;20606;-70
2021/01/29 05:51:38;;;;;;;4.93;3.00;;;-0.90;86.20;;;;;;4907600;29;20215;-70
2021/01/29 05:54:20;;;;;;;4.77;3.10;;;-0.90;86.20;;;;;;4958346;28;20963;-70
2021/01/29 05:57:24;;;;;;;3.53;3.07;;;-0.80;86.40;;;;;;4955521;28;20194;-70
2021/01/29 06:00:18;;;;;;;3.30;2.70;;;-0.80;86.40;;;;;;4966677;28;20681;-71
2021/01/29 06:02:43;;;;;;;2.77;2.57;;;-0.80;86.40;;;;;;4979864;28;20694;-69
2021/01/29 06:05:32;;;;;;;4.70;3.00;;;-0.70;86.30;;;;;;4967606;28;20186;-71
2021/01/29 06:08:22;;;;;;;3.87;3.57;;;-0.70;86.30;;;;;;4947575;29;20174;-71
2021/01/29 06:11:18;;;;;;;4.43;2.80;;;-0.70;86.30;;;;;;4963835;28;20206;-70
2021/01/29 06:14:02;;;;;;;2.93;2.43;;;-0.60;86.50;;;;;;4959754;28;20179;-70
2021/01/29 06:17:02;;;;;;;3.23;2.40;;;-0.60;86.40;;;;;;4962996;28;20821;-70
2021/01/29 06:20:09;;;;;;;2.77;2.57;;;-0.60;86.20;;;;;;4975113;28;20186;-70
2021/01/29 06:22:43;;;;;;;3.33;2.80;;;-0.60;86.20;;;;;;4964675;28;20557;-71
2021/01/29 06:25:15;;;;;;;3.17;2.93;;;-0.50;86.00;;;;;;4965300;28;20169;-71
2021/01/29 06:28:11;;;;;;;4.30;3.00;;;-0.50;85.60;;;;;;4963140;28;20568;-73
2021/01/29 06:30:49;;;;;;;2.87;2.27;;;-0.40;85.30;;;;;;4966721;28;20285;-73
2021/01/29 06:33:40;;;;;;;3.33;3.07;;;-0.50;85.30;;;;;;4968462;28;20186;-73
2021/01/29 06:36:36;;;;;;;4.23;2.70;;;-0.40;85.60;;;;;;4968465;28;20253;-73
2021/01/29 06:39:11;;;;;;;3.43;2.93;;;-0.30;85.60;;;;;;4966034;28;20208;-73
2021/01/29 06:42:16;;;;;;;9.37;3.43;;;-0.20;85.40;;;;;;4965316;28;20174;-73
2021/01/29 06:45:08;;;;;;;4.60;3.07;;;-0.10;85.10;;;;;;4892604;29;20216;-73
2021/01/29 06:47:54;;;;;;;3.90;3.43;;;-0.10;85.40;;;;;;4893240;29;20195;-74
2021/01/29 06:50:28;;;;;;;4.90;3.40;;;0.00;85.00;;;;;;4908281;29;20581;-74
2021/01/29 06:53:22;;;;;;;3.63;3.03;;;0.00;85.00;;;;;;4908523;29;20185;-73
2021/01/29 06:56:08;;;;;;;9.53;4.30;;;0.00;85.20;;;;;;4890045;29;20201;-72
2021/01/29 06:58:55;;;;;;;3.00;2.73;;;0.10;84.80;;;;;;4909423;29;20259;-73
2021/01/29 07:01:29;;;;;;;4.03;3.33;;;0.20;84.90;;;;;;4902907;29;20725;-73
2021/01/29 07:03:55;;;;;;;9.03;3.50;;;0.30;84.50;;;;;;4902175;29;20207;-73
2021/01/29 07:07:02;;;;;;;3.37;3.13;;;0.30;84.90;;;;;;4908832;29;20200;-73
2021/01/29 07:10:00;;;;;;;3.40;3.07;;;0.40;85.10;;;;;;4851290;29;20649;-73
2021/01/29 07:13:15;;;;;;;4.27;3.00;;;0.50;84.70;;;;;;4848454;29;20235;-73
2021/01/29 07:16:06;;;;;;;5.60;3.50;;;0.70;84.40;;;;;;4769997;29;20205;-73
2021/01/29 07:18:54;;;;;;;4.07;3.63;;;0.80;84.20;;;;;;4779474;30;20914;-73
2021/01/29 07:21:31;;;;;;;5.80;3.57;;;0.80;83.30;;;;;;4777524;29;20203;-73
2021/01/29 07:24:23;;;;;;;5.77;3.60;;;0.80;83.30;;;;;;4799805;29;20713;-72
2021/01/29 07:27:19;;;;;;;9.67;3.50;;;0.80;83.80;;;;;;4809322;29;20718;-73
2021/01/29 07:30:21;;;;;;;3.63;3.37;;;0.80;84.10;;;;;;4815700;29;20212;-74
2021/01/29 07:33:05;;;;;;;3.23;3.00;;;1.00;84.20;;;;;;4815556;29;20242;-73
2021/01/29 07:35:49;;;;;;;3.47;3.13;;;1.10;84.20;;;;;;4815407;29;20184;-72
2021/01/29 07:38:30;;;;;;;4.37;3.77;;;1.20;84.10;;;;;;4807979;29;20204;-71
2021/01/29 07:41:20;;;;;;;4.73;3.50;;;1.40;83.90;;;;;;4809964;29;20208;-71
2021/01/29 07:44:18;;;;;;;4.27;3.47;;;1.50;82.60;;;;;;4814667;29;20207;-72
2021/01/29 07:46:53;;;;;;;4.50;3.53;;;1.50;82.70;;;;;;4869518;29;20201;-72
2021/01/29 07:49:55;;;;;;;2.73;2.53;;;1.50;82.60;;;;;;4867436;29;20189;-71
2021/01/29 07:52:50;;;;;;;3.30;2.87;;;1.60;83.00;;;;;;4892996;28;20975;-71
2021/01/29 07:55:19;;;;;;;4.33;3.80;;;1.70;83.00;;;;;;4920373;29;20192;-71
2021/01/29 07:58:05;;;;;;;7.57;4.30;;;1.70;82.60;;;;;;4901445;29;20219;-71
2021/01/29 08:00:52;;;;;;;4.50;3.10;;;1.80;83.00;;;;;;4923305;29;21083;-71
2021/01/29 08:03:48;;;;;;;6.77;3.73;;;2.00;82.80;;;;;;4924268;29;20234;-71
2021/01/29 08:06:44;;;;;;;4.97;4.33;;;2.10;82.80;;;;;;4898375;29;20287;-70
2021/01/29 08:09:23;;;;;;;4.73;3.27;;;2.30;81.30;;;;;;4906239;29;20192;-71
2021/01/29 08:11:55;;;;;;;4.80;3.73;;;2.30;81.20;;;;;;4891154;29;20231;-71
2021/01/29 08:14:33;;;;;;;4.63;3.50;;;2.40;81.80;;;;;;4907352;29;20204;-71
2021/01/29 08:17:23;;;;;;;2.97;2.77;;;2.40;82.00;;;;;;4906445;29;20191;-71
2021/01/29 08:20:14;;;;;;;4.70;3.93;;;2.50;81.40;;;;;;4905506;29;20200;-71
2021/01/29 08:22:49;;;;;;;5.80;3.63;;;2.60;81.30;;;;;;4905695;29;20181;-71
2021/01/29 08:25:37;;;;;;;4.87;3.10;;;2.70;81.50;;;;;;4889398;29;20778;-71
2021/01/29 08:28:33;;;;;;;5.67;3.87;;;2.70;81.30;;;;;;4889658;29;21090;-71
2021/01/29 08:31:26;;;;;;;5.83;3.43;;;2.80;81.70;;;;;;4889871;29;20211;-71
2021/01/29 08:34:27;;;;;;;4.53;3.53;;;2.90;81.50;;;;;;4906311;29;20701;-71
2021/01/29 08:37:04;;;;;;;8.40;4.30;;;3.00;79.70;;;;;;4906467;29;20204;-71
2021/01/29 08:39:38;;;;;;;4.20;3.80;;;2.90;79.70;;;;;;4906809;29;20267;-71
2021/01/29 08:42:33;;;;;;;5.13;3.20;;;2.90;80.90;;;;;;4895880;29;20571;-71
2021/01/29 08:45:10;;;;;;;4.73;4.10;;;3.00;81.30;;;;;;4920020;28;20198;-71
2021/01/29 08:47:39;;;;;;;6.00;4.13;;;3.10;81.00;;;;;;4948591;28;20198;-71
2021/01/29 08:50:05;;;;;;;6.40;4.40;;;3.10;81.00;;;;;;4966175;28;20193;-71
2021/01/29 08:53:04;;;;;;;7.43;4.07;;;3.20;81.00;;;;;;4966458;28;20194;-71
2021/01/29 08:56:00;;;;;;;8.20;5.03;;;3.20;80.80;;;;;;4963847;28;20193;-71
2021/01/29 08:58:53;;;;;;;4.00;3.60;;;3.20;80.60;;;;;;4961590;28;20193;-71
2021/01/29 09:01:45;;;;;;;9.57;5.20;;;3.20;80.30;;;;;;4961765;28;20189;-71
2021/01/29 09:04:41;;;;;;;3.63;3.40;;;3.20;80.30;;;;;;4960240;28;20201;-71
2021/01/29 09:07:18;;;;;;;5.30;4.33;;;3.10;80.50;;;;;;4959362;28;20205;-71
2021/01/29 09:09:44;;;;;;;5.63;5.10;;;3.10;80.60;;;;;;4963187;28;20186;-71
2021/01/29 09:12:24;;;;;;;7.40;4.50;;;3.10;81.00;;;;;;4964266;28;20178;-72
2021/01/29 09:15:16;;;;;;;5.53;4.10;;;3.20;80.60;;;;;;4962463;28;20186;-71
2021/01/29 09:17:58;;;;;;;4.90;4.17;;;3.30;80.80;;;;;;4907980;29;20196;-70
2021/01/29 09:20:41;;;;;;;6.77;4.53;;;3.30;80.20;;;;;;4897646;29;20585;-71
2021/01/29 09:23:16;;;;;;;5.97;4.30;;;3.30;80.50;;;;;;4900676;29;20220;-72
2021/01/29 09:26:02;;;;;;;5.60;4.87;;;3.30;80.30;;;;;;4890956;29;20193;-71
2021/01/29 09:28:33;;;;;;;6.60;5.13;;;3.30;80.50;;;;;;4898477;29;20193;-73
2021/01/29 09:31:07;;;;;;;7.20;5.30;;;3.40;80.20;;;;;;4899414;29;20176;-71
2021/01/29 09:33:53;;;;;;;4.63;4.20;;;3.40;80.90;;;;;;4890155;29;20906;-71
2021/01/29 09:36:32;;;;;;;6.83;4.70;;;3.50;81.20;;;;;;4893667;29;20203;-71
2021/01/29 09:39:08;;;;;;;6.03;4.53;;;3.70;80.50;;;;;;4894036;29;20264;-71
2021/01/29 09:41:53;;;;;;;7.90;6.03;;;3.70;79.80;;;;;;4899274;29;20540;-70
2021/01/29 09:44:43;;;;;;;4.67;4.27;;;3.80;79.90;;;;;;4903909;29;20936;-70
2021/01/29 09:47:10;;;;;;;11.10;5.83;;;3.80;80.50;;;;;;4897779;29;20184;-70
2021/01/29 09:49:38;;;;;;;14.07;5.10;;;4.00;80.40;;;;;;4904801;29;20184;-70
2021/01/29 09:52:24;;;;;;;7.80;5.50;;;4.10;79.50;;;;;;4898652;29;20189;-70
2021/01/29 09:55:19;;;;;;;8.20;5.83;;;4.20;80.10;;;;;;4936134;28;20642;-71
2021/01/29 09:58:01;;;;;;;5.93;5.20;;;4.20;79.30;;;;;;4905405;29;20204;-69
2021/01/29 10:00:33;;;;;;;14.60;5.37;;;4.20;79.80;;;;;;4905765;29;20189;-72
2021/01/29 10:03:02;;;;;;;9.90;6.13;;;4.30;79.70;;;;;;4905868;29;20636;-70
2021/01/29 10:05:39;;;;;;;6.73;5.50;;;4.40;80.20;;;;;;4891996;29;20185;-72
2021/01/29 10:08:10;;;;;;;7.63;5.80;;;4.40;78.40;;;;;;4909579;29;20216;-70
2021/01/29 10:11:10;;;;;;;7.57;5.97;;;4.50;79.40;;;;;;4909649;29;20184;-71
2021/01/29 10:13:55;;;;;;;7.27;5.47;;;4.60;79.60;;;;;;4909745;29;20200;-71
2021/01/29 10:16:23;;;;;;;9.60;6.17;;;4.80;80.00;;;;;;4909480;29;20279;-70
2021/01/29 10:18:52;;;;;;;9.93;6.20;;;4.90;79.60;;;;;;4903149;29;20569;-71
2021/01/29 10:21:26;;;;;;;7.67;6.13;;;5.00;79.40;;;;;;4905379;29;20244;-71
2021/01/29 10:24:07;;;;;;;10.97;6.80;;;5.10;79.30;;;;;;4909594;29;20215;-71
2021/01/29 10:26:38;;;;;;;9.73;6.67;;;5.30;79.60;;;;;;4909820;29;20183;-72
2021/01/29 10:29:13;;;;;;;8.70;7.00;;;5.70;79.70;;;;;;4909544;29;20212;-72
2021/01/29 10:31:53;;;;;;;17.90;8.40;;;6.00;79.60;;;;;;4909740;29;20191;-72
2021/01/29 10:34:48;;;;;;;11.33;7.83;;;6.30;78.40;;;;;;4930199;28;21006;-72
2021/01/29 10:37:19;;;;;;;8.97;7.00;;;6.50;77.20;;;;;;4965692;28;20652;-72
2021/01/29 10:40:11;;;;;;;15.57;7.60;;;6.70;77.00;;;;;;4966925;28;20230;-70
2021/01/29 10:42:45;;;;;;;9.47;6.10;;;6.80;75.70;;;;;;4964632;28;20220;-71
2021/01/29 10:45:17;;;;;;;8.83;6.73;;;7.00;77.10;;;;;;4959333;28;20189;-70
2021/01/29 10:48:00;;;;;;;9.47;6.60;;;7.30;75.90;;;;;;4965166;28;20181;-71
2021/01/29 10:50:32;;;;;;;14.43;8.37;;;7.70;76.00;;;;;;4968447;28;20167;-71
2021/01/29 10:53:11;;;;;;;18.30;9.53;;;8.00;75.40;;;;;;4967745;28;20174;-71
2021/01/29 10:55:49;;;;;;;17.13;9.87;;;8.00;71.10;;;;;;4967014;28;20554;-70
2021/01/29 10:58:24;;;;;;;15.77;9.00;;;7.90;73.70;;;;;;4967895;28;20170;-70
2021/01/29 11:01:04;;;;;;;15.37;9.40;;;7.90;73.40;;;;;;4963395;28;20189;-72
2021/01/29 11:04:08;;;;;;;10.63;7.63;;;8.00;73.90;;;;;;4948475;28;20190;-71
2021/01/29 11:06:42;;;;;;;9.63;7.13;;;8.10;70.90;;;;;;4963047;28;20202;-71
2021/01/29 11:09:34;;;;;;;8.23;6.87;;;8.10;72.10;;;;;;4961074;28;20170;-71
2021/01/29 11:12:19;;;;;;;9.40;7.27;;;8.30;72.40;;;;;;4956106;28;20317;-71
2021/01/29 11:14:55;;;;;;;12.50;7.60;;;9.00;72.30;;;;;;4955165;28;20257;-71
2021/01/29 11:17:42;;;;;;;15.93;8.10;;;9.60;70.60;;;;;;4963878;28;20182;-72
2021/01/29 11:20:43;;;;;;;10.43;7.07;;;10.30;68.80;;;;;;4954125;28;20178;-71
2021/01/29 11:23:23;;;;;;;10.07;6.90;;;10.60;67.70;;;;;;4904245;29;20208;-72
2021/01/29 11:25:53;;;;;;;8.18;6.68;;;10.90;67.60;;;;;;4907348;29;20203;-71
2021/01/29 11:28:29;;;;;;;10.02;7.15;;;10.90;65.60;;;;;;4906612;29;20185;-71
2021/01/29 11:31:18;;;;;;;11.45;6.63;;;10.80;65.60;;;;;;4907762;29;20271;-71
2021/01/29 11:33:48;;;;;;;8.82;6.88;;;10.80;66.60;;;;;;4908283;29;20180;-71
2021/01/29 11:36:29;;;;;;;9.40;7.25;;;11.00;67.70;;;;;;4907398;29;20215;-71
2021/01/29 11:38:57;;;;;;;11.68;7.47;;;11.10;67.70;;;;;;4908080;29;20199;-71
2021/01/29 11:41:30;;;;;;;11.40;7.25;;;11.30;67.00;;;;;;4906753;29;20240;-72
2021/01/29 11:44:02;;;;;;;9.93;7.50;;;11.60;67.00;;;;;;4907072;29;20283;-73
2021/01/29 11:46:51;;;;;;;7.38;6.60;;;11.90;66.60;;;;;;4908000;29;20176;-73
2021/01/29 11:49:26;;;;;;;10.80;7.30;;;12.00;65.70;;;;;;4907249;29;20655;-72
2021/01/29 11:51:58;;;;;;;9.60;7.15;;;12.30;66.20;;;;;;4907155;29;20277;-73
2021/01/29 11:54:50;;;;;;;11.07;7.72;;;13.00;65.30;;;;;;4906391;29;20579;-72
2021/01/29 11:57:46;;;;;;;9.40;7.50;;;13.70;63.90;;;;;;4950125;28;20205;-72
2021/01/29 12:00:36;;;;;;;11.05;6.88;;;14.40;63.80;;;;;;4965627;28;20183;-77
2021/01/29 12:03:29;;;;;;;11.30;7.63;;;14.50;61.10;;;;;;4958777;28;20194;-75
2021/01/29 12:06:13;;;;;;;7.38;6.63;;;15.00;61.50;;;;;;4965888;28;20261;-71
2021/01/29 12:09:13;;;;;;;7.18;6.53;;;15.40;60.40;;;;;;4949152;28;20342;-72
2021/01/29 12:12:09;;;;;;;9.82;7.20;;;15.80;60.90;;;;;;4967248;28;20181;-72
2021/01/29 12:17:35;;;;;;;8.73;6.85;;;17.00;60.10;;;;;;4921065;29;20187;-74
2021/01/29 12:20:08;;;;;;;8.98;7.72;;;17.50;56.40;;;;;;4920570;29;20197;-72
2021/01/29 12:22:47;;;;;;;10.82;8.68;;;17.80;58.10;;;;;;4926875;29;20188;-73
2021/01/29 12:25:37;;;;;;;9.27;8.38;;;18.10;57.60;;;;;;4923723;29;20761;-72
2021/01/29 12:28:23;;;;;;;10.35;8.68;;;18.30;55.30;;;;;;4915484;29;20168;-79
2021/01/29 12:31:10;;;;;;;12.60;8.70;;;18.30;55.90;;;;;;4922033;29;20633;-82
2021/01/29 12:33:48;;;;;;;13.75;9.23;;;18.20;55.40;;;;;;4929414;29;20203;-86
2021/01/29 12:36:17;;;;;;;11.55;9.13;;;18.30;56.90;;;;;;4911857;29;20211;-83
2021/01/29 12:38:57;;;;;;;10.73;8.50;;;18.30;56.00;;;;;;4923088;29;20200;-82
2021/01/29 12:41:44;;;;;;;9.82;8.75;;;17.90;55.30;;;;;;4929477;29;20187;-84
2021/01/29 12:44:34;;;;;;;9.98;8.02;;;17.70;57.20;;;;;;4914023;29;20746;-84
2021/01/29 12:46:59;;;;;;;13.18;8.93;;;17.70;57.60;;;;;;4925811;29;20176;-77
2021/01/29 12:49:56;;;;;;;10.70;9.07;;;17.90;57.60;;;;;;4915213;29;20833;-78
2021/01/29 12:52:42;;;;;;;11.40;9.65;;;18.10;54.40;;;;;;4890620;29;20193;-77
2021/01/29 12:55:27;;;;;;;13.57;9.23;;;18.00;57.20;;;;;;4927387;29;20226;-86
2021/01/29 12:58:01;;;;;;;11.32;9.98;;;18.00;56.20;;;;;;4928795;29;20270;-82
2021/01/29 13:00:32;;;;;;;12.15;9.68;;;17.80;56.30;;;;;;4913557;29;20278;-82
2021/01/29 13:03:38;;;;;;;13.48;8.93;;;17.70;55.80;;;;;;4913022;29;20344;-83
2021/01/29 13:06:21;;;;;;;11.43;8.75;;;17.50;54.80;;;;;;4926934;29;20190;-82
2021/01/29 13:09:20;;;;;;;10.07;8.32;;;17.20;54.50;;;;;;4923870;29;20179;-82
2021/01/29 13:11:58;;;;;;;14.57;8.82;;;16.40;55.20;;;;;;4928820;29;20224;-87
2021/01/29 13:14:51;;;;;;;11.90;8.85;;;16.00;57.60;;;;;;4929104;29;20187;-86
2021/01/29 13:17:24;;;;;;;9.07;7.95;;;15.80;56.60;;;;;;4928615;29;20616;-86
2021/01/29 13:20:11;;;;;;;9.30;8.23;;;15.60;57.30;;;;;;4912913;29;20191;-88
2021/01/29 13:22:42;;;;;;;8.00;7.20;;;15.50;59.40;;;;;;4929328;29;20306;-88
2021/01/29 13:25:13;;;;;;;9.07;7.25;;;15.60;58.10;;;;;;4929257;29;20579;-90
2021/01/29 13:27:54;;;;;;;9.95;7.75;;;15.70;58.60;;;;;;4932133;29;20238;-90
2021/01/29 13:30:33;;;;;;;10.27;7.65;;;15.70;57.60;;;;;;4957976;28;20186;-92
2021/01/29 13:33:04;;;;;;;8.35;7.28;;;15.70;57.40;;;;;;4957071;28;20232;-89
2021/01/29 13:35:34;;;;;;;10.05;6.97;;;15.50;58.00;;;;;;4955363;28;20622;-90
2021/01/29 13:38:27;;;;;;;13.32;7.75;;;15.20;58.90;;;;;;4947462;28;20186;-88
2021/01/29 13:41:05;;;;;;;8.98;6.88;;;14.90;58.20;;;;;;4963307;28;20221;-86
2021/01/29 13:43:31;;;;;;;11.63;7.75;;;14.60;58.50;;;;;;4953706;28;20983;-87
2021/01/29 13:46:04;;;;;;;10.70;7.85;;;14.10;59.20;;;;;;4947079;28;20584;-76
2021/01/29 13:48:30;;;;;;;8.43;7.45;;;13.70;59.30;;;;;;4957608;28;20575;-76
2021/01/29 13:50:59;;;;;;;11.05;8.20;;;13.50;59.50;;;;;;4946753;28;20187;-76
2021/01/29 13:53:27;;;;;;;12.55;8.10;;;13.50;60.70;;;;;;4961773;28;20229;-76
2021/01/29 13:56:00;;;;;;;11.40;7.82;;;13.70;61.80;;;;;;4961481;28;20185;-77
2021/01/29 13:58:49;;;;;;;10.25;8.25;;;13.90;60.80;;;;;;4958744;28;20206;-76